createdAt,value
2022-12-29T00:00:11.741Z,63.20
2022-12-29T00:02:41.855Z,61.30
2022-12-29T00:05:09.315Z,61.50
2022-12-29T00:07:36.222Z,61.50
2022-12-29T00:10:03.681Z,62.60
2022-12-29T00:12:50.491Z,61.50
2022-12-29T00:15:35.911Z,61.60
2022-12-29T00:18:02.940Z,61.60
2022-12-29T00:20:48.559Z,61.60
2022-12-29T00:23:34.117Z,61.60
2022-12-29T00:26:23.363Z,63.90
2022-12-29T00:29:10.077Z,61.60
2022-12-29T00:31:55.618Z,61.70
2022-12-29T00:34:41.099Z,61.50
2022-12-29T00:37:07.989Z,61.80
2022-12-29T00:40:13.186Z,61.90
2022-12-29T00:42:58.466Z,62.00
2022-12-29T00:45:26.125Z,62.20
2022-12-29T00:47:53.030Z,62.90
2022-12-29T00:50:19.797Z,62.60
2022-12-29T00:52:46.593Z,63.60
2022-12-29T00:55:13.786Z,62.90
2022-12-29T00:57:40.587Z,63.10
2022-12-29T01:00:08.010Z,63.10
2022-12-29T01:02:34.930Z,63.30
2022-12-29T01:05:02.737Z,63.40
2022-12-29T01:07:29.567Z,63.90
2022-12-29T01:10:11.475Z,63.60
2022-12-29T01:12:41.932Z,63.80
2022-12-29T01:15:14.295Z,63.70
2022-12-29T01:17:42.102Z,64.00
2022-12-29T01:20:09.485Z,64.20
2022-12-29T01:22:36.434Z,64.50
2022-12-29T01:25:04.237Z,64.80
2022-12-29T01:27:31.433Z,64.90
2022-12-29T01:29:58.299Z,65.10
2022-12-29T01:32:25.225Z,66.20
2022-12-29T01:34:52.047Z,66.30
2022-12-29T01:37:18.887Z,66.00
2022-12-29T01:39:45.745Z,66.00
2022-12-29T01:42:20.407Z,66.10
2022-12-29T01:45:04.575Z,66.50
2022-12-29T01:47:34.168Z,66.70
2022-12-29T01:50:10.476Z,66.60
2022-12-29T01:52:43.628Z,66.70
2022-12-29T01:55:11.811Z,66.80
2022-12-29T01:57:41.752Z,69.00
2022-12-29T02:00:11.963Z,67.10
2022-12-29T02:02:45.840Z,66.90
2022-12-29T02:05:19.534Z,68.00
2022-12-29T02:07:47.695Z,67.20
2022-12-29T02:10:14.864Z,67.00
2022-12-29T02:12:42.014Z,67.00
2022-12-29T02:15:09.518Z,67.60
2022-12-29T02:17:39.084Z,66.90
2022-12-29T02:20:24.356Z,67.00
2022-12-29T02:22:57.101Z,69.30
2022-12-29T02:25:42.594Z,66.90
2022-12-29T02:28:48.460Z,69.50
2022-12-29T02:31:22.650Z,64.70
2022-12-29T02:34:15.268Z,67.00
2022-12-29T02:37:01.273Z,67.00
2022-12-29T02:39:43.113Z,67.10
2022-12-29T02:42:24.986Z,67.20
2022-12-29T02:45:08.238Z,67.20
2022-12-29T02:47:34.986Z,67.20
2022-12-29T02:50:15.006Z,67.30
2022-12-29T02:53:01.098Z,67.30
2022-12-29T02:55:28.290Z,67.40
2022-12-29T02:58:27.645Z,70.60
2022-12-29T03:01:10.985Z,67.50
2022-12-29T03:03:54.960Z,67.50
2022-12-29T03:06:35.618Z,67.50
2022-12-29T03:09:40.274Z,67.60
2022-12-29T03:12:46.082Z,67.60
2022-12-29T03:15:41.852Z,67.60
2022-12-29T03:18:22.317Z,67.60
2022-12-29T03:21:16.927Z,67.80
2022-12-29T03:23:50.915Z,67.80
2022-12-29T03:26:21.169Z,69.70
2022-12-29T03:28:54.054Z,67.80
2022-12-29T03:31:25.681Z,67.80
2022-12-29T03:33:54.318Z,67.90
2022-12-29T03:36:31.662Z,67.80
2022-12-29T03:39:04.340Z,67.90
2022-12-29T03:41:34.181Z,69.10
2022-12-29T03:44:03.568Z,68.20
2022-12-29T03:46:30.496Z,68.10
2022-12-29T03:48:57.530Z,67.70
2022-12-29T03:51:24.653Z,67.60
2022-12-29T03:53:51.754Z,67.60
2022-12-29T03:56:19.113Z,67.80
2022-12-29T03:58:46.116Z,69.90
2022-12-29T04:01:18.545Z,67.70
2022-12-29T04:03:45.754Z,68.70
2022-12-29T04:06:13.034Z,67.70
2022-12-29T04:08:46.702Z,67.70
2022-12-29T04:11:13.989Z,67.70
2022-12-29T04:13:42.007Z,67.60
2022-12-29T04:16:10.984Z,67.60
2022-12-29T04:18:37.866Z,67.60
2022-12-29T04:21:05.494Z,69.80
2022-12-29T04:23:37.863Z,67.50
2022-12-29T04:26:08.769Z,67.60
2022-12-29T04:28:39.751Z,67.40
2022-12-29T04:31:25.277Z,69.00
2022-12-29T04:33:52.358Z,67.40
2022-12-29T04:36:19.586Z,67.40
2022-12-29T04:38:46.468Z,67.40
2022-12-29T04:41:14.254Z,67.30
2022-12-29T04:43:41.154Z,67.40
2022-12-29T04:46:28.353Z,67.30
2022-12-29T04:49:05.546Z,67.20
2022-12-29T04:51:47.780Z,67.20
2022-12-29T04:54:16.177Z,67.80
2022-12-29T04:56:46.375Z,67.10
2022-12-29T04:59:15.910Z,69.20
2022-12-29T05:01:44.875Z,67.10
2022-12-29T05:04:12.661Z,67.20
2022-12-29T05:06:39.498Z,67.00
2022-12-29T05:09:07.441Z,67.90
2022-12-29T05:11:35.663Z,66.90
2022-12-29T05:14:02.652Z,67.10
2022-12-29T05:16:30.010Z,67.80
2022-12-29T05:18:57.920Z,67.00
2022-12-29T05:21:24.797Z,67.40
2022-12-29T05:23:51.928Z,66.80
2022-12-29T05:26:19.042Z,66.80
2022-12-29T05:28:54.247Z,67.80
2022-12-29T05:31:21.092Z,66.70
2022-12-29T05:33:48.786Z,68.60
2022-12-29T05:36:15.692Z,67.40
2022-12-29T05:38:47.215Z,67.60
2022-12-29T05:41:14.399Z,66.50
2022-12-29T05:44:04.467Z,66.50
2022-12-29T05:46:40.706Z,66.60
2022-12-29T05:49:15.797Z,66.50
2022-12-29T05:52:01.373Z,68.50
2022-12-29T05:54:29.525Z,66.30
2022-12-29T05:56:56.803Z,66.20
2022-12-29T05:59:23.677Z,66.30
2022-12-29T06:01:51.491Z,66.10
2022-12-29T06:04:18.521Z,66.10
2022-12-29T06:06:45.375Z,66.10
2022-12-29T06:09:20.750Z,65.90
2022-12-29T06:11:47.684Z,66.00
2022-12-29T06:14:14.561Z,66.40
2022-12-29T06:16:42.918Z,65.90
2022-12-29T06:19:12.272Z,67.50
2022-12-29T06:21:39.139Z,66.60
2022-12-29T06:24:06.579Z,65.80
2022-12-29T06:26:35.254Z,65.80
2022-12-29T06:29:02.761Z,67.70
2022-12-29T06:31:29.890Z,68.10
2022-12-29T06:33:56.818Z,65.80
2022-12-29T06:36:23.645Z,66.40
2022-12-29T06:38:53.386Z,66.80
2022-12-29T06:41:22.143Z,67.60
2022-12-29T06:44:22.970Z,65.70
2022-12-29T06:47:00.936Z,65.60
2022-12-29T06:49:27.812Z,65.60
2022-12-29T06:51:54.647Z,65.80
2022-12-29T06:54:21.509Z,66.80
2022-12-29T06:56:48.405Z,66.00
2022-12-29T06:59:15.237Z,65.40
2022-12-29T07:01:43.335Z,65.50
2022-12-29T07:04:10.287Z,67.60
2022-12-29T07:06:37.163Z,65.40
2022-12-29T07:09:04.110Z,65.60
2022-12-29T07:11:30.915Z,65.50
2022-12-29T07:14:04.471Z,66.10
2022-12-29T07:16:32.589Z,65.40
2022-12-29T07:19:00.562Z,65.40
2022-12-29T07:21:27.612Z,66.20
2022-12-29T07:23:55.358Z,65.40
2022-12-29T07:26:22.482Z,65.50
2022-12-29T07:28:49.492Z,65.50
2022-12-29T07:31:18.982Z,65.70
2022-12-29T07:33:46.380Z,65.40
2022-12-29T07:36:14.970Z,65.50
2022-12-29T07:38:42.562Z,65.60
2022-12-29T07:41:09.492Z,67.70
2022-12-29T07:43:36.320Z,65.60
2022-12-29T07:46:55.292Z,65.80
2022-12-29T07:49:07.957Z,65.80
2022-12-29T07:51:35.093Z,65.50
2022-12-29T07:54:01.976Z,65.40
2022-12-29T07:56:29.390Z,65.20
2022-12-29T07:58:56.242Z,65.10
2022-12-29T08:01:24.464Z,65.50
2022-12-29T08:03:56.905Z,65.10
2022-12-29T08:06:24.360Z,66.10
2022-12-29T08:08:51.275Z,64.90
2022-12-29T08:11:18.182Z,64.80
2022-12-29T08:13:44.979Z,64.60
2022-12-29T08:16:11.872Z,64.50
2022-12-29T08:18:38.746Z,64.50
2022-12-29T08:21:06.663Z,64.40
2022-12-29T08:23:33.591Z,64.30
2022-12-29T08:26:05.921Z,64.40
2022-12-29T08:28:33.751Z,64.10
2022-12-29T08:31:02.434Z,64.30
2022-12-29T08:33:30.208Z,64.40
2022-12-29T08:36:04.732Z,64.10
2022-12-29T08:38:31.983Z,64.00
2022-12-29T08:41:00.492Z,64.30
2022-12-29T08:43:28.846Z,64.00
2022-12-29T08:45:55.783Z,65.10
2022-12-29T08:48:23.239Z,63.90
2022-12-29T08:50:51.285Z,64.10
2022-12-29T08:53:19.130Z,63.90
2022-12-29T08:55:47.585Z,63.80
2022-12-29T08:58:15.712Z,63.80
2022-12-29T09:00:44.055Z,63.70
2022-12-29T09:03:11.153Z,65.90
2022-12-29T09:05:38.455Z,63.60
2022-12-29T09:08:05.520Z,63.50
2022-12-29T09:10:32.613Z,64.90
2022-12-29T09:12:59.576Z,65.50
2022-12-29T09:15:26.450Z,63.30
2022-12-29T09:17:53.499Z,63.30
2022-12-29T09:20:21.022Z,63.10
2022-12-29T09:22:48.573Z,63.20
2022-12-29T09:25:16.135Z,63.20
2022-12-29T09:27:43.323Z,63.20
2022-12-29T09:30:12.871Z,64.80
2022-12-29T09:32:44.786Z,63.10
2022-12-29T09:35:13.031Z,63.20
2022-12-29T09:37:39.986Z,63.20
2022-12-29T09:40:08.489Z,63.10
2022-12-29T09:42:41.109Z,63.10
2022-12-29T09:45:56.292Z,63.10
2022-12-29T09:48:30.233Z,62.60
2022-12-29T09:51:01.342Z,63.20
2022-12-29T09:53:42.089Z,63.30
2022-12-29T09:56:20.601Z,63.10
2022-12-29T09:58:55.334Z,63.20
2022-12-29T10:01:38.579Z,63.20
2022-12-29T10:04:06.291Z,63.60
2022-12-29T10:10:02.377Z,65.10
2022-12-29T10:13:11.099Z,63.10
2022-12-29T10:16:01.581Z,62.70
2022-12-29T10:18:46.535Z,62.90
2022-12-29T10:21:35.067Z,62.90
2022-12-29T10:24:07.465Z,62.70
2022-12-29T10:26:40.362Z,62.70
2022-12-29T10:29:20.010Z,63.90
2022-12-29T10:31:58.719Z,62.50
2022-12-29T10:34:50.956Z,61.90
2022-12-29T10:37:55.051Z,62.70
2022-12-29T10:40:21.925Z,61.30
2022-12-29T10:42:55.501Z,64.60
2022-12-29T10:45:26.525Z,62.60
2022-12-29T10:48:24.863Z,63.40
2022-12-29T10:51:01.799Z,64.40
2022-12-29T10:53:38.605Z,63.40
2022-12-29T10:56:16.105Z,64.50
2022-12-29T10:58:49.560Z,64.80
2022-12-29T11:01:18.604Z,63.40
2022-12-29T11:04:13.295Z,65.50
2022-12-29T11:06:40.375Z,64.50
2022-12-29T11:09:13.318Z,64.40
2022-12-29T11:11:40.192Z,65.60
2022-12-29T11:14:28.737Z,65.60
2022-12-29T11:17:04.362Z,67.00
2022-12-29T11:19:40.466Z,66.90
2022-12-29T11:22:29.172Z,66.80
2022-12-29T11:25:11.341Z,68.20
2022-12-29T11:27:38.186Z,67.50
2022-12-29T11:30:24.571Z,67.50
2022-12-29T11:32:53.745Z,68.50
2022-12-29T11:35:36.149Z,68.30
2022-12-29T11:38:18.108Z,69.00
2022-12-29T11:40:44.928Z,68.90
2022-12-29T11:43:23.724Z,69.50
2022-12-29T11:45:53.605Z,69.70
2022-12-29T11:48:22.149Z,69.80
2022-12-29T11:50:56.352Z,70.40
2022-12-29T11:53:27.009Z,70.50
2022-12-29T11:56:03.750Z,70.40
2022-12-29T11:58:33.575Z,70.80
2022-12-29T12:01:18.074Z,70.50
2022-12-29T12:04:11.384Z,70.80
2022-12-29T12:06:47.662Z,71.60
2022-12-29T12:09:23.853Z,71.30
2022-12-29T12:11:55.575Z,73.20
2022-12-29T12:14:33.015Z,71.50
2022-12-29T12:17:25.040Z,71.80
2022-12-29T12:19:59.884Z,70.70
2022-12-29T12:22:36.552Z,70.70
2022-12-29T12:25:17.587Z,70.30
2022-12-29T12:28:22.446Z,70.30
2022-12-29T12:30:54.692Z,70.20
2022-12-29T12:33:40.280Z,70.30
2022-12-29T12:36:25.742Z,70.30
2022-12-29T12:39:00.406Z,70.10
2022-12-29T12:42:01.801Z,70.20
2022-12-29T12:44:37.975Z,69.90
2022-12-29T12:47:33.937Z,69.80
2022-12-29T12:50:27.104Z,69.90
2022-12-29T12:53:13.104Z,69.70
2022-12-29T12:55:49.035Z,69.80
2022-12-29T12:58:24.708Z,69.80
2022-12-29T13:01:18.428Z,69.70
2022-12-29T13:04:00.976Z,69.60
2022-12-29T13:07:08.749Z,69.40
2022-12-29T13:09:44.592Z,69.10
2022-12-29T13:12:20.086Z,69.30
2022-12-29T13:14:59.195Z,69.20
2022-12-29T13:17:46.347Z,68.90
2022-12-29T13:20:32.014Z,68.60
2022-12-29T13:23:16.523Z,68.60
2022-12-29T13:25:54.431Z,68.70
2022-12-29T13:28:29.433Z,68.80
2022-12-29T13:31:26.527Z,68.80
2022-12-29T13:34:21.480Z,68.20
2022-12-29T13:37:02.647Z,68.00
2022-12-29T13:39:35.187Z,67.90
2022-12-29T13:42:04.294Z,67.80
2022-12-29T13:44:41.168Z,67.60
2022-12-29T13:47:27.573Z,67.00
2022-12-29T13:49:55.584Z,66.70
2022-12-29T13:52:50.176Z,69.10
2022-12-29T13:56:01.409Z,66.20
2022-12-29T13:58:47.162Z,66.00
2022-12-29T14:01:35.601Z,66.70
2022-12-29T14:04:09.982Z,66.30
2022-12-29T14:06:41.492Z,66.30
2022-12-29T14:09:43.942Z,66.30
2022-12-29T14:12:41.745Z,65.50
2022-12-29T14:15:11.648Z,65.50
2022-12-29T14:17:44.990Z,65.80
2022-12-29T14:20:23.936Z,65.80
2022-12-29T14:23:26.608Z,65.30
2022-12-29T14:25:59.819Z,66.80
2022-12-29T14:28:35.264Z,65.20
2022-12-29T14:31:04.750Z,65.10
2022-12-29T14:33:34.046Z,65.20
2022-12-29T14:36:56.367Z,65.00
2022-12-29T14:39:42.539Z,64.10
2022-12-29T14:42:12.135Z,64.40
2022-12-29T14:44:56.453Z,66.20
2022-12-29T14:47:36.670Z,64.30
2022-12-29T14:50:14.060Z,64.20
2022-12-29T14:53:02.019Z,64.30
2022-12-29T14:55:47.778Z,64.10
2022-12-29T14:58:17.573Z,64.10
2022-12-29T15:00:46.469Z,64.60
2022-12-29T15:03:22.857Z,66.80
2022-12-29T15:05:57.203Z,64.20
2022-12-29T15:08:31.326Z,64.10
2022-12-29T15:11:18.597Z,64.00
2022-12-29T15:13:47.178Z,63.80
2022-12-29T15:16:32.507Z,64.00
2022-12-29T15:19:00.364Z,63.60
2022-12-29T15:21:37.587Z,63.70
2022-12-29T15:24:05.414Z,63.40
2022-12-29T15:26:40.924Z,63.60
2022-12-29T15:29:57.061Z,63.40
2022-12-29T15:32:26.526Z,63.20
2022-12-29T15:35:02.329Z,66.00
2022-12-29T15:37:36.905Z,64.50
2022-12-29T15:40:04.695Z,65.10
2022-12-29T15:42:43.521Z,63.80
2022-12-29T15:45:15.222Z,63.90
2022-12-29T15:47:45.475Z,63.90
2022-12-29T15:50:29.054Z,64.10
2022-12-29T15:52:57.230Z,64.20
2022-12-29T15:55:36.426Z,64.50
2022-12-29T15:58:05.969Z,64.70
2022-12-29T16:00:39.760Z,64.70
2022-12-29T16:03:13.727Z,65.30
2022-12-29T16:05:41.143Z,67.00
2022-12-29T16:08:34.788Z,65.10
2022-12-29T16:11:04.030Z,66.30
2022-12-29T16:13:39.973Z,65.10
2022-12-29T16:16:38.315Z,65.00
2022-12-29T16:19:14.174Z,64.90
2022-12-29T16:21:42.903Z,65.00
2022-12-29T16:24:19.118Z,65.10
2022-12-29T16:27:10.977Z,65.10
2022-12-29T16:29:38.145Z,65.20
2022-12-29T16:32:27.761Z,65.30
2022-12-29T16:35:19.339Z,65.30
2022-12-29T16:37:46.906Z,65.50
2022-12-29T16:40:23.211Z,65.60
2022-12-29T16:42:52.475Z,65.50
2022-12-29T16:45:19.530Z,65.70
2022-12-29T16:48:05.608Z,65.70
2022-12-29T16:50:33.968Z,65.60
2022-12-29T16:53:01.264Z,65.60
2022-12-29T16:55:28.139Z,65.70
2022-12-29T16:57:57.385Z,65.70
2022-12-29T17:00:26.999Z,65.70
2022-12-29T17:02:59.174Z,65.60
2022-12-29T17:05:26.368Z,67.00
2022-12-29T17:07:53.902Z,65.50
2022-12-29T17:10:20.783Z,67.00
2022-12-29T17:12:49.383Z,65.60
2022-12-29T17:15:36.617Z,65.30
2022-12-29T17:18:06.292Z,65.10
2022-12-29T17:20:35.811Z,66.70
2022-12-29T17:23:02.903Z,65.40
2022-12-29T17:25:33.152Z,65.30
2022-12-29T17:28:05.007Z,65.80
2022-12-29T17:30:34.653Z,65.80
2022-12-29T17:33:09.039Z,65.30
2022-12-29T17:35:36.730Z,65.40
2022-12-29T17:38:03.585Z,65.30
2022-12-29T17:40:33.460Z,65.50
2022-12-29T17:43:00.610Z,65.40
2022-12-29T17:45:30.607Z,67.70
2022-12-29T17:48:01.544Z,66.30
2022-12-29T17:50:31.349Z,65.90
2022-12-29T17:53:04.113Z,66.80
2022-12-29T17:55:37.310Z,65.60
2022-12-29T17:58:21.900Z,65.70
2022-12-29T18:00:51.483Z,65.50
2022-12-29T18:03:23.138Z,65.70
2022-12-29T18:05:50.459Z,65.80
2022-12-29T18:08:17.338Z,65.80
2022-12-29T18:10:44.864Z,65.90
2022-12-29T18:13:32.987Z,66.50
2022-12-29T18:16:02.923Z,66.40
2022-12-29T18:18:29.814Z,66.00
2022-12-29T18:20:59.737Z,68.00
2022-12-29T18:23:32.772Z,67.60
2022-12-29T18:26:04.123Z,67.00
2022-12-29T18:28:31.216Z,66.00
2022-12-29T18:31:00.355Z,68.50
2022-12-29T18:33:27.956Z,66.20
2022-12-29T18:35:59.823Z,68.20
2022-12-29T18:38:27.784Z,66.20
2022-12-29T18:40:55.007Z,66.20
2022-12-29T18:43:22.578Z,66.30
2022-12-29T18:45:49.390Z,66.40
2022-12-29T18:48:17.973Z,66.60
2022-12-29T18:50:45.674Z,68.40
2022-12-29T18:53:23.822Z,66.60
2022-12-29T18:55:51.516Z,66.80
2022-12-29T18:58:18.937Z,66.80
2022-12-29T19:00:46.291Z,66.90
2022-12-29T19:03:15.172Z,67.00
2022-12-29T19:05:43.770Z,67.00
2022-12-29T19:08:11.798Z,67.00
2022-12-29T19:10:39.925Z,67.60
2022-12-29T19:13:07.265Z,68.60
2022-12-29T19:15:38.045Z,67.00
2022-12-29T19:18:42.471Z,66.90
2022-12-29T19:20:55.261Z,66.90
2022-12-29T19:23:24.590Z,66.90
2022-12-29T19:25:52.427Z,66.90
2022-12-29T19:28:21.259Z,67.00
2022-12-29T19:30:52.191Z,67.00
2022-12-29T19:33:21.705Z,67.10
2022-12-29T19:35:49.956Z,67.10
2022-12-29T19:38:16.870Z,68.40
2022-12-29T19:40:46.794Z,67.50
2022-12-29T19:43:14.644Z,67.20
2022-12-29T19:45:43.415Z,69.80
2022-12-29T19:48:16.302Z,67.30
2022-12-29T19:50:43.851Z,69.10
2022-12-29T19:53:11.837Z,67.50
2022-12-29T19:55:45.911Z,67.50
2022-12-29T19:58:13.527Z,67.50
2022-12-29T20:00:41.727Z,68.80
2022-12-29T20:03:09.180Z,67.60
2022-12-29T20:05:36.537Z,67.70
2022-12-29T20:08:03.691Z,67.70
2022-12-29T20:10:30.699Z,67.70
2022-12-29T20:12:57.599Z,67.90
2022-12-29T20:15:24.558Z,67.90
2022-12-29T20:20:38.251Z,68.40
2022-12-29T20:23:05.036Z,69.40
2022-12-29T20:25:44.615Z,68.00
2022-12-29T20:28:12.083Z,68.00
2022-12-29T20:30:39.017Z,68.10
2022-12-29T20:33:08.290Z,69.20
2022-12-29T20:35:36.449Z,68.00
2022-12-29T20:38:04.094Z,68.10
2022-12-29T20:40:30.969Z,68.40
2022-12-29T20:42:57.755Z,70.50
2022-12-29T20:45:25.016Z,68.80
2022-12-29T20:47:51.925Z,68.20
2022-12-29T20:50:18.988Z,69.70
2022-12-29T20:52:46.832Z,68.30
2022-12-29T20:55:14.347Z,69.40
2022-12-29T21:00:30.607Z,68.20
2022-12-29T21:03:01.723Z,68.20
2022-12-29T21:05:29.076Z,68.10
2022-12-29T21:07:56.521Z,68.20
2022-12-29T21:10:23.334Z,69.50
2022-12-29T21:12:50.284Z,68.20
2022-12-29T21:15:17.252Z,68.10
2022-12-29T21:17:44.914Z,69.30
2022-12-29T21:20:30.264Z,68.20
2022-12-29T21:23:00.097Z,68.40
2022-12-29T21:25:37.262Z,68.30
2022-12-29T21:28:09.554Z,68.30
2022-12-29T21:30:36.668Z,68.20
2022-12-29T21:33:03.905Z,68.40
2022-12-29T21:35:30.801Z,68.30
2022-12-29T21:37:57.654Z,68.40
2022-12-29T21:40:24.474Z,68.40
2022-12-29T21:42:51.331Z,68.30
2022-12-29T21:45:27.549Z,68.20
2022-12-29T21:48:18.532Z,68.20
2022-12-29T21:51:09.640Z,68.20
2022-12-29T21:53:41.108Z,68.90
2022-12-29T21:56:19.086Z,68.20
2022-12-29T21:59:06.927Z,70.30
2022-12-29T22:01:55.026Z,68.10
2022-12-29T22:04:43.289Z,68.20
2022-12-29T22:07:30.770Z,68.70
2022-12-29T22:10:16.411Z,68.20
2022-12-29T22:13:01.650Z,68.20
2022-12-29T22:15:31.079Z,68.30
2022-12-29T22:17:58.251Z,70.70
2022-12-29T22:20:27.622Z,70.90
2022-12-29T22:22:54.909Z,68.50
2022-12-29T22:25:22.526Z,68.60
2022-12-29T22:27:54.225Z,68.60
2022-12-29T22:30:26.520Z,68.70
2022-12-29T22:32:53.321Z,68.70
2022-12-29T22:35:20.292Z,68.80
2022-12-29T22:37:47.178Z,68.80
2022-12-29T22:40:13.996Z,68.80
2022-12-29T22:42:40.894Z,68.70
2022-12-29T22:45:08.382Z,68.70
2022-12-29T22:47:35.498Z,68.60
2022-12-29T22:50:02.753Z,68.60
2022-12-29T22:52:29.806Z,69.40
2022-12-29T22:55:00.190Z,68.70
2022-12-29T22:57:31.260Z,68.60
2022-12-29T22:59:58.065Z,68.80
2022-12-29T23:02:25.159Z,68.70
2022-12-29T23:05:03.428Z,68.60
2022-12-29T23:07:31.323Z,68.70
2022-12-29T23:09:58.640Z,68.70
2022-12-29T23:12:27.200Z,68.60
2022-12-29T23:14:54.039Z,68.60
2022-12-29T23:17:21.098Z,68.60
2022-12-29T23:19:47.950Z,68.60
2022-12-29T23:22:15.016Z,69.60
2022-12-29T23:24:41.893Z,68.90
2022-12-29T23:27:08.749Z,68.60
2022-12-29T23:29:35.660Z,70.40
2022-12-29T23:32:02.473Z,68.80
2022-12-29T23:34:29.260Z,68.90
2022-12-29T23:36:56.151Z,69.00
2022-12-29T23:39:24.463Z,69.10
2022-12-29T23:41:51.916Z,69.10
2022-12-29T23:44:18.910Z,69.20
2022-12-29T23:46:45.879Z,69.30
2022-12-29T23:49:13.117Z,69.30
2022-12-29T23:51:40.023Z,69.20
2022-12-29T23:54:07.252Z,69.10
2022-12-29T23:56:34.087Z,69.00
2022-12-29T23:59:04.416Z,69.10
